createdAt,value
2018-01-15T00:01:33.116Z,81.82
2018-01-15T00:04:01.509Z,81.02
2018-01-15T00:06:29.852Z,80.37
2018-01-15T00:08:58.329Z,79.41
2018-01-15T00:11:26.714Z,79.13
2018-01-15T00:13:55.111Z,78.75
2018-01-15T00:16:23.464Z,78.64
2018-01-15T00:18:51.796Z,78.38
2018-01-15T00:21:20.152Z,78.10
2018-01-15T00:23:48.528Z,77.87
2018-01-15T00:26:17.445Z,77.59
2018-01-15T00:28:45.803Z,77.41
2018-01-15T00:31:14.164Z,77.33
2018-01-15T00:33:42.552Z,77.13
2018-01-15T00:36:10.892Z,76.82
2018-01-15T00:38:39.300Z,76.72
2018-01-15T00:41:07.664Z,76.94
2018-01-15T00:43:36.032Z,77.38
2018-01-15T00:46:04.600Z,77.44
2018-01-15T00:48:33.723Z,77.62
2018-01-15T00:51:02.884Z,77.21
2018-01-15T00:53:32.000Z,77.09
2018-01-15T00:56:00.364Z,77.37
2018-01-15T00:58:29.480Z,77.73
2018-01-15T01:00:57.851Z,77.80
2018-01-15T01:03:26.240Z,77.71
2018-01-15T01:05:54.592Z,77.94
2018-01-15T01:08:23.752Z,78.26
2018-01-15T01:10:52.096Z,78.12
2018-01-15T01:13:20.477Z,77.75
2018-01-15T01:15:49.247Z,78.13
2018-01-15T01:18:17.632Z,78.41
2018-01-15T01:20:46.021Z,78.17
2018-01-15T01:23:15.531Z,78.54
2018-01-15T01:25:43.900Z,78.74
2018-01-15T01:28:12.235Z,78.97
2018-01-15T01:30:40.635Z,79.08
2018-01-15T01:33:08.979Z,78.90
2018-01-15T01:35:37.361Z,79.22
2018-01-15T01:38:05.748Z,79.17
2018-01-15T01:40:34.124Z,79.21
2018-01-15T01:43:02.499Z,79.04
2018-01-15T01:45:30.856Z,78.74
2018-01-15T01:48:00.033Z,78.97
2018-01-15T01:50:28.443Z,78.72
2018-01-15T01:52:56.783Z,78.59
2018-01-15T01:55:26.259Z,78.49
2018-01-15T01:57:54.659Z,78.73
2018-01-15T02:00:23.011Z,78.00
2018-01-15T02:02:52.159Z,77.91
2018-01-15T02:05:20.509Z,77.98
2018-01-15T02:07:49.663Z,77.91
2018-01-15T02:10:18.031Z,77.44
2018-01-15T02:12:46.414Z,77.53
2018-01-15T02:15:14.774Z,77.47
2018-01-15T02:17:43.171Z,77.55
2018-01-15T02:20:12.351Z,77.34
2018-01-15T02:22:40.751Z,77.05
2018-01-15T02:25:09.511Z,77.02
2018-01-15T02:27:38.639Z,77.17
2018-01-15T02:30:07.051Z,76.98
2018-01-15T02:32:35.399Z,77.30
2018-01-15T02:35:04.551Z,77.26
2018-01-15T02:37:32.907Z,76.84
2018-01-15T02:40:01.308Z,76.79
2018-01-15T02:42:29.719Z,77.48
2018-01-15T02:44:58.075Z,77.88
2018-01-15T02:47:26.451Z,77.89
2018-01-15T02:49:55.223Z,77.81
2018-01-15T02:52:23.606Z,77.28
2018-01-15T02:54:51.991Z,77.89
2018-01-15T02:57:20.362Z,78.10
2018-01-15T02:59:48.709Z,78.17
2018-01-15T03:02:17.103Z,77.90
2018-01-15T03:04:45.474Z,77.72
2018-01-15T03:07:14.639Z,77.32
2018-01-15T03:09:42.982Z,77.39
2018-01-15T03:12:11.350Z,77.29
2018-01-15T03:14:39.707Z,76.84
2018-01-15T03:17:08.047Z,76.44
2018-01-15T03:19:36.826Z,76.11
2018-01-15T03:22:05.176Z,75.83
2018-01-15T03:24:33.599Z,75.68
2018-01-15T03:27:01.938Z,76.43
2018-01-15T03:29:30.282Z,76.32
2018-01-15T03:31:58.659Z,76.68
2018-01-15T03:34:27.437Z,76.63
2018-01-15T03:36:55.778Z,76.50
2018-01-15T03:39:25.310Z,76.44
2018-01-15T03:41:54.426Z,76.01
2018-01-15T03:44:22.802Z,76.13
2018-01-15T03:46:51.138Z,75.97
2018-01-15T03:49:19.486Z,75.75
2018-01-15T03:51:47.854Z,75.65
2018-01-15T03:54:16.234Z,75.29
2018-01-15T03:56:44.626Z,75.67
2018-01-15T03:59:12.978Z,75.61
2018-01-15T04:01:41.369Z,75.50
2018-01-15T04:04:09.718Z,75.54
2018-01-15T04:06:38.094Z,75.22
2018-01-15T04:09:06.457Z,75.43
2018-01-15T04:11:34.838Z,75.12
2018-01-15T04:14:03.946Z,75.01
2018-01-15T04:16:32.334Z,75.20
2018-01-15T04:19:01.454Z,75.38
2018-01-15T04:21:29.854Z,75.41
2018-01-15T04:23:58.197Z,75.12
2018-01-15T04:26:26.534Z,75.44
2018-01-15T04:28:55.694Z,75.21
2018-01-15T04:31:24.113Z,75.47
2018-01-15T04:33:53.261Z,75.44
2018-01-15T04:36:21.638Z,75.30
2018-01-15T04:38:50.021Z,75.48
2018-01-15T04:41:18.762Z,75.54
2018-01-15T04:43:47.149Z,75.22
2018-01-15T04:46:15.513Z,75.27
2018-01-15T04:48:44.629Z,75.60
2018-01-15T04:51:13.021Z,75.34
2018-01-15T04:53:41.375Z,75.14
2018-01-15T04:56:09.838Z,75.09
2018-01-15T04:58:38.185Z,74.95
2018-01-15T05:01:07.297Z,75.21
2018-01-15T05:03:35.657Z,75.31
2018-01-15T05:06:04.776Z,75.28
2018-01-15T05:08:33.148Z,75.72
2018-01-15T05:11:01.481Z,75.91
2018-01-15T05:13:29.873Z,75.87
2018-01-15T05:15:58.249Z,75.90
2018-01-15T05:18:27.734Z,75.87
2018-01-15T05:20:56.129Z,75.81
2018-01-15T05:23:24.493Z,76.01
2018-01-15T05:25:52.844Z,76.35
2018-01-15T05:28:21.988Z,76.86
2018-01-15T05:30:50.337Z,77.62
2018-01-15T05:33:18.673Z,78.44
2018-01-15T05:35:47.853Z,78.76
2018-01-15T05:38:16.256Z,79.43
2018-01-15T05:40:45.754Z,79.78
2018-01-15T05:43:14.949Z,80.06
2018-01-15T05:45:43.337Z,80.41
2018-01-15T05:48:12.449Z,80.66
2018-01-15T05:50:41.245Z,80.38
2018-01-15T05:53:09.640Z,80.54
2018-01-15T05:55:37.990Z,81.11
2018-01-15T05:58:06.353Z,81.31
2018-01-15T06:00:35.110Z,81.52
2018-01-15T06:03:03.502Z,81.76
2018-01-15T06:05:32.593Z,81.82
2018-01-15T06:08:00.958Z,81.81
2018-01-15T06:10:29.697Z,82.01
2018-01-15T06:12:58.087Z,82.05
2018-01-15T06:15:26.868Z,82.07
2018-01-15T06:17:56.576Z,82.30
2018-01-15T06:20:26.299Z,82.57
2018-01-15T06:22:54.681Z,82.83
2018-01-15T06:25:23.066Z,82.63
2018-01-15T06:27:51.466Z,82.72
2018-01-15T06:30:19.869Z,82.73
2018-01-15T06:32:49.033Z,82.71
2018-01-15T06:35:17.801Z,82.68
2018-01-15T06:37:46.900Z,82.53
2018-01-15T06:40:15.285Z,82.38
2018-01-15T06:42:43.621Z,82.30
2018-01-15T06:45:12.750Z,82.25
2018-01-15T06:47:41.077Z,82.19
2018-01-15T06:50:09.454Z,82.26
2018-01-15T06:52:37.841Z,82.22
2018-01-15T06:55:06.936Z,82.20
2018-01-15T06:57:35.298Z,82.18
2018-01-15T07:00:03.709Z,82.41
2018-01-15T07:02:32.093Z,82.39
2018-01-15T07:05:00.507Z,82.40
2018-01-15T07:07:28.913Z,82.30
2018-01-15T07:09:57.305Z,82.33
2018-01-15T07:12:26.433Z,82.32
2018-01-15T07:14:54.782Z,82.46
2018-01-15T07:17:23.961Z,82.21
2018-01-15T07:19:52.299Z,82.16
2018-01-15T07:22:20.644Z,81.99
2018-01-15T07:24:49.005Z,81.91
2018-01-15T07:27:17.355Z,81.79
2018-01-15T07:29:46.522Z,81.73
2018-01-15T07:32:14.937Z,81.51
2018-01-15T07:34:43.281Z,81.45
2018-01-15T07:37:12.384Z,81.47
2018-01-15T07:39:41.930Z,81.47
2018-01-15T07:42:10.282Z,81.49
2018-01-15T07:44:39.033Z,81.26
2018-01-15T07:47:07.409Z,80.95
2018-01-15T07:49:37.125Z,80.75
2018-01-15T07:52:05.513Z,80.52
2018-01-15T07:54:33.895Z,80.12
2018-01-15T07:57:02.277Z,79.78
2018-01-15T07:59:30.663Z,79.47
2018-01-15T08:01:58.997Z,79.29
2018-01-15T08:04:28.155Z,79.14
2018-01-15T08:06:56.514Z,78.90
2018-01-15T08:09:24.890Z,78.65
2018-01-15T08:11:53.653Z,78.30
2018-01-15T08:14:22.195Z,77.96
2018-01-15T08:16:50.581Z,77.71
2018-01-15T08:19:18.941Z,77.40
2018-01-15T08:21:47.288Z,77.18
2018-01-15T08:24:15.677Z,76.80
2018-01-15T08:26:44.021Z,76.53
2018-01-15T08:29:12.425Z,76.20
2018-01-15T08:31:40.861Z,75.66
2018-01-15T08:34:09.215Z,75.21
2018-01-15T08:36:37.577Z,75.19
2018-01-15T08:39:05.985Z,75.16
2018-01-15T08:41:35.099Z,75.09
2018-01-15T08:44:04.260Z,74.79
2018-01-15T08:46:32.601Z,74.58
2018-01-15T08:49:00.935Z,74.42
2018-01-15T08:51:29.321Z,73.97
2018-01-15T08:53:58.451Z,73.65
2018-01-15T08:56:26.809Z,73.48
2018-01-15T08:58:55.213Z,73.22
2018-01-15T09:01:24.676Z,73.10
2018-01-15T09:03:53.921Z,72.41
2018-01-15T09:06:23.034Z,72.22
2018-01-15T09:08:51.372Z,71.70
2018-01-15T09:11:19.736Z,71.23
2018-01-15T09:13:48.064Z,70.82
2018-01-15T09:16:16.420Z,70.35
2018-01-15T09:18:45.512Z,69.81
2018-01-15T09:21:14.265Z,69.67
2018-01-15T09:23:43.372Z,69.39
2018-01-15T09:26:11.733Z,69.15
2018-01-15T09:28:40.836Z,68.70
2018-01-15T09:31:09.996Z,68.50
2018-01-15T09:33:38.376Z,67.91
2018-01-15T09:36:06.724Z,67.97
2018-01-15T09:38:35.146Z,67.64
2018-01-15T09:41:03.500Z,67.28
2018-01-15T09:43:31.825Z,67.18
2018-01-15T09:46:00.201Z,67.01
2018-01-15T09:48:29.433Z,66.58
2018-01-15T09:50:57.828Z,66.48
2018-01-15T09:53:26.153Z,66.54
2018-01-15T09:55:55.281Z,65.73
2018-01-15T09:58:23.651Z,65.27
2018-01-15T10:00:51.997Z,65.29
2018-01-15T10:03:21.148Z,65.82
2018-01-15T10:05:50.256Z,65.51
2018-01-15T10:08:18.632Z,64.86
2018-01-15T10:10:47.351Z,64.81
2018-01-15T10:13:16.481Z,64.54
2018-01-15T10:15:44.807Z,64.45
2018-01-15T10:18:13.163Z,64.60
2018-01-15T10:20:41.495Z,64.62
2018-01-15T10:23:09.869Z,64.56
2018-01-15T10:25:38.969Z,64.14
2018-01-15T10:28:07.363Z,64.05
2018-01-15T10:30:35.704Z,63.66
2018-01-15T10:33:04.091Z,63.50
2018-01-15T10:35:33.227Z,62.96
2018-01-15T10:38:01.553Z,63.24
2018-01-15T10:40:29.919Z,62.94
2018-01-15T10:42:58.252Z,62.79
2018-01-15T10:45:26.625Z,62.47
2018-01-15T10:47:56.104Z,62.56
2018-01-15T10:50:25.226Z,62.70
2018-01-15T10:52:53.564Z,62.81
2018-01-15T10:55:21.938Z,62.61
2018-01-15T10:57:50.282Z,62.35
2018-01-15T11:00:18.743Z,62.08
2018-01-15T11:02:47.086Z,62.24
2018-01-15T11:05:16.196Z,61.88
2018-01-15T11:07:44.572Z,62.05
2018-01-15T11:10:13.790Z,62.03
2018-01-15T11:12:42.117Z,61.88
2018-01-15T11:15:10.483Z,61.73
2018-01-15T11:17:39.275Z,61.59
2018-01-15T11:20:07.643Z,61.53
2018-01-15T11:22:36.019Z,61.73
2018-01-15T11:25:05.118Z,61.68
2018-01-15T11:27:33.455Z,61.76
2018-01-15T11:30:01.830Z,61.82
2018-01-15T11:32:30.190Z,61.88
2018-01-15T11:34:59.310Z,61.75
2018-01-15T11:37:27.698Z,61.72
2018-01-15T11:39:56.047Z,61.29
2018-01-15T11:42:24.410Z,61.22
2018-01-15T11:44:53.530Z,61.11
2018-01-15T11:47:21.931Z,61.12
2018-01-15T11:49:50.288Z,60.50
2018-01-15T11:52:18.694Z,60.81
2018-01-15T11:54:47.030Z,60.95
2018-01-15T11:57:16.122Z,61.24
2018-01-15T11:59:44.910Z,61.14
2018-01-15T12:02:14.002Z,61.10
2018-01-15T12:04:43.158Z,61.11
2018-01-15T12:07:11.530Z,61.48
2018-01-15T12:09:39.918Z,61.36
2018-01-15T12:12:08.653Z,61.52
2018-01-15T12:14:37.003Z,61.45
2018-01-15T12:17:06.184Z,61.16
2018-01-15T12:19:35.129Z,61.25
2018-01-15T12:22:03.486Z,61.17
2018-01-15T12:24:31.871Z,60.94
2018-01-15T12:27:00.226Z,61.05
2018-01-15T12:29:28.597Z,61.12
2018-01-15T12:31:56.930Z,61.53
2018-01-15T12:34:25.247Z,61.86
2018-01-15T12:36:53.614Z,61.79
2018-01-15T12:39:21.990Z,61.98
2018-01-15T12:41:50.358Z,62.10
2018-01-15T12:44:18.698Z,62.21
2018-01-15T12:46:47.046Z,62.18
2018-01-15T12:49:15.411Z,62.05
2018-01-15T12:51:45.051Z,61.69
2018-01-15T12:54:19.839Z,61.78
2018-01-15T12:56:48.170Z,61.98
2018-01-15T12:59:16.569Z,61.64
2018-01-15T13:01:44.898Z,61.82
2018-01-15T13:04:14.038Z,62.20
2018-01-15T13:07:01.864Z,62.39
2018-01-15T13:09:30.236Z,62.65
2018-01-15T13:11:59.353Z,62.75
2018-01-15T13:14:27.742Z,62.80
2018-01-15T13:16:56.086Z,62.94
2018-01-15T13:19:24.457Z,62.79
2018-01-15T13:21:52.802Z,62.75
2018-01-15T13:24:21.966Z,63.04
2018-01-15T13:26:50.842Z,63.19
2018-01-15T13:29:19.223Z,63.25
2018-01-15T13:31:47.589Z,63.45
2018-01-15T13:34:15.931Z,63.34
2018-01-15T13:36:45.087Z,63.46
2018-01-15T13:39:13.441Z,63.63
2018-01-15T13:41:41.811Z,63.54
2018-01-15T13:44:10.181Z,63.46
2018-01-15T13:46:38.519Z,63.45
2018-01-15T13:49:06.878Z,63.26
2018-01-15T13:51:35.226Z,63.22
2018-01-15T13:54:03.600Z,63.54
2018-01-15T13:56:31.946Z,64.04
2018-01-15T13:59:00.322Z,64.11
2018-01-15T14:01:28.798Z,64.12
2018-01-15T14:03:57.137Z,64.26
2018-01-15T14:06:25.486Z,64.12
2018-01-15T14:08:55.389Z,63.85
2018-01-15T14:11:24.877Z,63.67
2018-01-15T14:13:54.710Z,63.53
2018-01-15T14:16:23.830Z,63.50
2018-01-15T14:18:52.162Z,63.73
2018-01-15T14:21:21.334Z,63.85
2018-01-15T14:23:49.658Z,64.06
2018-01-15T14:26:18.038Z,64.05
2018-01-15T14:28:46.473Z,64.30
2018-01-15T14:31:14.797Z,64.61
2018-01-15T14:33:43.174Z,64.83
2018-01-15T14:36:11.542Z,65.00
2018-01-15T14:38:40.667Z,65.39
2018-01-15T14:41:08.985Z,65.60
2018-01-15T14:43:37.365Z,65.85
2018-01-15T14:46:07.081Z,65.94
2018-01-15T14:48:36.221Z,66.17
2018-01-15T14:51:05.362Z,66.20
2018-01-15T14:53:33.757Z,66.34
2018-01-15T14:56:02.137Z,66.51
2018-01-15T14:58:30.465Z,66.37
2018-01-15T15:00:58.915Z,66.44
2018-01-15T15:03:27.631Z,66.19
2018-01-15T15:05:55.973Z,66.27
2018-01-15T15:08:25.109Z,66.28
2018-01-15T15:10:53.446Z,66.37
2018-01-15T15:13:22.593Z,66.17
2018-01-15T15:15:51.014Z,66.34
2018-01-15T15:18:19.717Z,66.67
2018-01-15T15:20:48.837Z,66.83
2018-01-15T15:23:17.207Z,67.21
2018-01-15T15:25:45.542Z,67.34
2018-01-15T15:28:13.925Z,67.73
2018-01-15T15:30:42.262Z,68.22
2018-01-15T15:33:11.401Z,68.46
2018-01-15T15:35:40.529Z,68.50
2018-01-15T15:38:09.766Z,68.07
2018-01-15T15:40:38.101Z,67.51
2018-01-15T15:43:06.448Z,66.72
2018-01-15T15:45:34.840Z,66.53
2018-01-15T15:48:03.971Z,66.68
2018-01-15T15:50:33.107Z,66.82
2018-01-15T15:53:02.259Z,66.89
2018-01-15T15:55:32.392Z,66.95
2018-01-15T15:58:01.430Z,67.01
2018-01-15T16:00:30.586Z,67.11
2018-01-15T16:02:59.020Z,66.87
2018-01-15T16:05:28.202Z,67.29
2018-01-15T16:07:56.574Z,68.00
2018-01-15T16:10:25.718Z,68.41
2018-01-15T16:12:54.989Z,68.79
2018-01-15T16:15:23.396Z,68.55
2018-01-15T16:17:54.105Z,68.62
2018-01-15T16:20:22.573Z,68.98
2018-01-15T16:23:00.241Z,69.62
2018-01-15T16:25:29.011Z,69.94
2018-01-15T16:27:58.534Z,72.66
2018-01-15T16:30:28.380Z,70.05
2018-01-15T16:32:57.529Z,69.45
2018-01-15T16:35:25.902Z,69.23
2018-01-15T16:37:54.696Z,68.98
2018-01-15T16:40:23.028Z,69.17
2018-01-15T16:42:51.819Z,69.35
2018-01-15T16:45:20.210Z,69.88
2018-01-15T16:47:49.384Z,70.54
2018-01-15T16:50:23.240Z,69.56
2018-01-15T16:52:51.614Z,69.44
2018-01-15T16:55:20.357Z,69.68
2018-01-15T16:57:48.800Z,69.57
2018-01-15T17:00:17.169Z,70.99
2018-01-15T17:02:46.369Z,69.93
2018-01-15T17:05:14.732Z,69.53
2018-01-15T17:07:43.106Z,69.87
2018-01-15T17:10:11.474Z,69.97
2018-01-15T17:12:40.540Z,69.76
2018-01-15T17:15:09.744Z,69.87
2018-01-15T17:17:38.432Z,69.46
2018-01-15T17:20:07.270Z,69.11
2018-01-15T17:22:36.049Z,70.48
2018-01-15T17:25:04.787Z,69.27
2018-01-15T17:27:33.943Z,68.99
2018-01-15T17:30:02.368Z,69.02
2018-01-15T17:32:30.795Z,69.30
2018-01-15T17:34:59.605Z,69.09
2018-01-15T17:37:28.421Z,68.96
2018-01-15T17:40:04.400Z,68.97
2018-01-15T17:42:32.759Z,69.09
2018-01-15T17:45:01.873Z,69.58
2018-01-15T17:47:30.343Z,69.48
2018-01-15T17:49:59.491Z,69.41
2018-01-15T17:52:27.939Z,69.38
2018-01-15T17:54:56.311Z,69.52
2018-01-15T17:57:26.032Z,69.69
2018-01-15T17:59:55.160Z,69.37
2018-01-15T18:02:24.409Z,69.20
2018-01-15T18:04:53.800Z,68.92
2018-01-15T18:07:22.207Z,69.05
2018-01-15T18:09:50.651Z,68.87
2018-01-15T18:12:19.852Z,69.18
2018-01-15T18:14:48.227Z,68.92
2018-01-15T18:17:16.592Z,68.53
2018-01-15T18:19:46.833Z,68.49
2018-01-15T18:22:15.637Z,68.22
2018-01-15T18:24:44.967Z,68.13
2018-01-15T18:27:13.692Z,67.86
2018-01-15T18:29:43.659Z,67.97
2018-01-15T18:32:12.935Z,67.68
2018-01-15T18:34:42.300Z,67.37
2018-01-15T18:37:11.461Z,67.25
2018-01-15T18:39:41.035Z,67.41
2018-01-15T18:42:09.453Z,67.56
2018-01-15T18:44:38.391Z,67.61
2018-01-15T18:47:06.825Z,67.65
2018-01-15T18:49:35.247Z,67.55
2018-01-15T18:52:03.672Z,67.54
2018-01-15T18:54:32.132Z,67.53
2018-01-15T18:57:01.159Z,67.22
2018-01-15T18:59:29.583Z,66.66
2018-01-15T19:01:58.894Z,66.50
2018-01-15T19:04:27.628Z,66.12
2018-01-15T19:06:56.072Z,65.46
2018-01-15T19:09:24.865Z,65.38
2018-01-15T19:11:53.288Z,65.06
2018-01-15T19:14:21.663Z,64.53
2018-01-15T19:16:50.059Z,64.28
2018-01-15T19:19:20.608Z,64.08
2018-01-15T19:21:49.947Z,63.79
2018-01-15T19:24:18.544Z,63.64
2018-01-15T19:26:50.485Z,63.43
2018-01-15T19:29:39.967Z,63.50
2018-01-15T19:32:09.726Z,63.05
2018-01-15T19:34:42.200Z,62.90
2018-01-15T19:37:11.303Z,62.71
2018-01-15T19:39:41.405Z,62.54
2018-01-15T19:42:10.630Z,62.08
2018-01-15T19:44:48.359Z,62.01
2018-01-15T19:47:23.075Z,62.19
2018-01-15T19:49:57.468Z,62.26
2018-01-15T19:52:32.319Z,62.30
2018-01-15T19:55:07.855Z,62.33
2018-01-15T20:00:48.407Z,62.10
2018-01-15T20:03:23.096Z,62.19
2018-01-15T20:05:57.260Z,62.15
2018-01-15T20:08:31.182Z,62.21
2018-01-15T20:11:02.041Z,61.90
2018-01-15T20:13:30.595Z,61.93
2018-01-15T20:15:59.059Z,62.10
2018-01-15T20:18:28.163Z,62.24
2018-01-15T20:20:56.505Z,62.05
2018-01-15T20:23:24.996Z,61.88
2018-01-15T20:25:54.147Z,61.71
2018-01-15T20:28:23.839Z,61.53
2018-01-15T20:31:02.415Z,61.57
2018-01-15T20:33:31.543Z,61.79
2018-01-15T20:36:00.856Z,61.96
2018-01-15T20:38:29.647Z,61.85
2018-01-15T20:40:58.750Z,62.01
2018-01-15T20:43:27.915Z,61.93
2018-01-15T20:45:57.320Z,61.90
2018-01-15T20:48:25.806Z,61.86
2018-01-15T20:50:54.203Z,61.49
2018-01-15T20:53:22.978Z,61.61
2018-01-15T20:55:51.363Z,61.21
2018-01-15T20:58:21.062Z,61.07
2018-01-15T21:00:50.290Z,61.13
2018-01-15T21:03:18.782Z,61.29
2018-01-15T21:05:48.078Z,61.25
2018-01-15T21:08:17.154Z,61.31
2018-01-15T21:10:45.507Z,61.12
2018-01-15T21:13:16.154Z,60.93
2018-01-15T21:15:45.526Z,61.19
2018-01-15T21:18:13.930Z,61.55
2018-01-15T21:20:43.430Z,61.86
2018-01-15T21:23:11.999Z,61.79
2018-01-15T21:25:41.842Z,61.68
2018-01-15T21:28:10.970Z,61.87
2018-01-15T21:30:39.318Z,61.61
2018-01-15T21:33:11.170Z,61.50
2018-01-15T21:38:17.912Z,61.75
2018-01-15T21:40:46.780Z,61.70
2018-01-15T21:43:15.168Z,61.12
2018-01-15T21:45:43.978Z,61.13
2018-01-15T21:48:14.258Z,60.99
2018-01-15T21:50:43.435Z,61.39
2018-01-15T21:53:12.282Z,61.38
2018-01-15T21:55:41.492Z,61.20
2018-01-15T21:58:11.954Z,61.46
2018-01-15T22:00:40.327Z,61.70
2018-01-15T22:03:08.659Z,62.07
2018-01-15T22:05:37.718Z,62.44
2018-01-15T22:08:06.089Z,62.45
2018-01-15T22:10:35.259Z,62.19
2018-01-15T22:13:03.587Z,62.64
2018-01-15T22:15:31.996Z,62.89
2018-01-15T22:18:00.777Z,62.94
2018-01-15T22:20:29.881Z,63.08
2018-01-15T22:22:59.082Z,63.07
2018-01-15T22:25:27.487Z,63.13
2018-01-15T22:27:55.835Z,63.26
2018-01-15T22:30:25.036Z,63.17
2018-01-15T22:32:54.178Z,63.17
2018-01-15T22:35:22.518Z,63.10
2018-01-15T22:37:51.018Z,63.23
2018-01-15T22:40:20.097Z,63.06
2018-01-15T22:42:49.201Z,62.77
2018-01-15T22:45:17.531Z,62.80
2018-01-15T22:47:45.901Z,62.83
2018-01-15T22:50:14.255Z,62.88
2018-01-15T22:52:42.635Z,62.69
2018-01-15T22:55:11.006Z,62.38
2018-01-15T22:57:39.341Z,62.24
2018-01-15T23:00:08.480Z,62.48
2018-01-15T23:02:36.865Z,62.63
2018-01-15T23:05:05.226Z,62.63
2018-01-15T23:07:33.607Z,62.62
2018-01-15T23:10:02.770Z,62.57
2018-01-15T23:12:32.109Z,62.50
2018-01-15T23:15:00.445Z,62.47
2018-01-15T23:17:29.585Z,62.53
2018-01-15T23:19:57.975Z,62.19
2018-01-15T23:22:26.353Z,62.19
2018-01-15T23:24:54.697Z,62.19
2018-01-15T23:27:23.017Z,62.50
2018-01-15T23:29:51.441Z,62.51
2018-01-15T23:32:19.832Z,62.40
2018-01-15T23:34:48.197Z,62.32
2018-01-15T23:37:17.333Z,62.60
2018-01-15T23:39:45.673Z,63.07
2018-01-15T23:42:14.033Z,63.09
2018-01-15T23:44:43.233Z,63.03
2018-01-15T23:47:12.341Z,62.67
2018-01-15T23:49:40.721Z,62.55
2018-01-15T23:52:09.089Z,62.74
2018-01-15T23:54:38.997Z,63.03
2018-01-15T23:57:08.104Z,63.39
2018-01-15T23:59:37.257Z,63.58
